Toyo Maru — JI3710 — position and weather

sailwx.info

Track history (hours):
 
Tides and Currents Weather Stations Pressure Air Temp Water Temp Dewpoint Dewpoint Depression Visibility Wind Speed Wind Dir Waves Ship Positions

Toyo Maru

Last reported at 2015-May-22 13:03 UTC. Time now 2015-May-26 13:53 UTC.
Position N 34°51' E 139°23'.

Length 125 m; draft 6 m.

Type: Cargo ship. MMSI: 431401953.

Date/timePositionNaut miles runAvg speedWind from/ knotsBaromVisibWave heightAir tempDewpointWater temp
2015-May-22 13:03N 34°51' E 139°23'1617.5
2015-May-22 12:08N 35°02' E 139°37'1016.9
2015-May-22 11:32N 35°10' E 139°45'1312.9
2015-May-22 10:34N 35°22' E 139°42'1615.8
2015-May-22 09:33N 35°32' E 139°57'8 8.2
2015-May-22 08:33N 35°36' E 140°06'0 0.0
2015-May-22 07:30N 35°36' E 140°06'0 0.0
2015-May-22 06:33N 35°36' E 140°06'0 0.0
2015-May-22 05:33N 35°36' E 140°06'1 1.3
2015-May-22 04:33N 35°37' E 140°05'0 0.0
2015-May-22 03:25N 35°37' E 140°05'0 0.0
2015-May-22 02:31N 35°37' E 140°05'0 0.0
2015-May-22 01:31N 35°37' E 140°05'0 0.0
2015-May-22 00:25N 35°37' E 140°05'0 0.0
2015-May-21 23:25N 35°37' E 140°05'0 0.0
2015-May-21 22:31N 35°37' E 140°05'0 0.0
2015-May-21 21:33N 35°37' E 140°05'1211.8
2015-May-21 20:34N 35°30' E 139°53'1414.0
2015-May-21 19:33N 35°18' E 139°45'1414.1
2015-May-21 18:33N 35°04' E 139°43'1815.2
2015-May-21 17:23N 34°53' E 139°26'4815.2
2015-May-21 14:14N 34°31' E 138°34'190 9.6
2015-May-20 18:32N 34°04' E 134°47'  
2015-May-18 10:05N 35°07' E 139°42'815.7
2015-May-18 09:33N 35°15' E 139°46'1212.5
2015-May-18 08:33N 35°27' E 139°47'1717.3
2015-May-18 07:34N 35°36' E 140°05'1 0.7
2015-May-18 06:17N 35°36' E 140°06'0 0.0
2015-May-18 05:32N 35°36' E 140°06'1 0.7
2015-May-18 04:33N 35°36' E 140°06'1 1.1
2015-May-18 03:30N 35°37' E 140°05'0 0.0
2015-May-18 02:30N 35°37' E 140°05'0 0.0
2015-May-18 01:18N 35°37' E 140°05'0 0.0
2015-May-18 00:30N 35°37' E 140°05'0 0.0
2015-May-17 23:30N 35°37' E 140°05'0 0.0
2015-May-17 22:30N 35°37' E 140°05'0 0.0
2015-May-17 21:30N 35°37' E 140°05'0 0.0
2015-May-17 20:24N 35°37' E 140°05'0 0.0
2015-May-17 19:30N 35°37' E 140°05'0 0.0
2015-May-17 18:30N 35°37' E 140°05'0 0.0
2015-May-17 17:30N 35°37' E 140°05'0 0.0
2015-May-17 16:06N 35°37' E 140°05'0 0.0
2015-May-17 15:30N 35°37' E 140°05'0 0.0
2015-May-17 14:18N 35°37' E 140°05'0 0.0
2015-May-17 13:24N 35°37' E 140°05'0 0.0
2015-May-17 12:30N 35°37' E 140°05'1 1.4
2015-May-17 11:34N 35°35' E 140°05'1716.8
2015-May-17 10:33N 35°26' E 139°48'1211.9
2015-May-17 09:33N 35°14' E 139°47'26015.0
2015-May-16 16:12N 34°12' E 134°40'239 4.6
2015-May-14 12:26N 34°52' E 139°25'1416.4
2015-May-14 11:33N 35°02' E 139°38'1515.1
2015-May-14 10:33N 35°16' E 139°46'1312.5
2015-May-14 09:34N 35°28' E 139°49'1616.0
2015-May-14 08:33N 35°36' E 140°06'0 0.3
2015-May-14 07:31N 35°36' E 140°06'0 0.0
2015-May-14 06:31N 35°36' E 140°06'1 1.3
2015-May-14 05:33N 35°37' E 140°05'0 0.0
2015-May-14 04:33N 35°37' E 140°05'0 0.0
2015-May-14 03:33N 35°37' E 140°05'0 0.0
2015-May-14 02:33N 35°37' E 140°05'0 0.0
2015-May-14 01:33N 35°37' E 140°05'0 0.0
2015-May-14 00:33N 35°37' E 140°05'0 0.0
2015-May-13 23:33N 35°37' E 140°05'0 0.0
2015-May-13 22:32N 35°37' E 140°05'6 5.9
2015-May-13 21:33N 35°33' E 139°59'1616.0
2015-May-13 20:33N 35°22' E 139°45'1312.9
2015-May-13 19:33N 35°09' E 139°46'1817.4
2015-May-13 18:32N 34°56' E 139°31'23910.8
2015-May-12 20:23N 34°04' E 134°48'  
Track history (hours):
 
Tides and Currents Weather Stations Pressure Air Temp Water Temp Dewpoint Dewpoint Depression Visibility Wind Speed Wind Dir Waves Ship Positions

Toyo Maru

Last reported at 2015-May-22 13:03 UTC. Time now 2015-May-26 13:53 UTC.
Position N 34°51' E 139°23'.

Length 125 m; draft 6 m.

Type: Cargo ship. MMSI: 431401953.

Date/timePositionNaut miles runAvg speedWind from/ knotsBaromVisibWave heightAir tempDewpointWater temp
2015-May-22 13:03N 34°51' E 139°23'1617.5
2015-May-22 12:08N 35°02' E 139°37'1016.9
2015-May-22 11:32N 35°10' E 139°45'1312.9
2015-May-22 10:34N 35°22' E 139°42'1615.8
2015-May-22 09:33N 35°32' E 139°57'8 8.2
2015-May-22 08:33N 35°36' E 140°06'0 0.0
2015-May-22 07:30N 35°36' E 140°06'0 0.0
2015-May-22 06:33N 35°36' E 140°06'0 0.0
2015-May-22 05:33N 35°36' E 140°06'1 1.3
2015-May-22 04:33N 35°37' E 140°05'0 0.0
2015-May-22 03:25N 35°37' E 140°05'0 0.0
2015-May-22 02:31N 35°37' E 140°05'0 0.0
2015-May-22 01:31N 35°37' E 140°05'0 0.0
2015-May-22 00:25N 35°37' E 140°05'0 0.0
2015-May-21 23:25N 35°37' E 140°05'0 0.0
2015-May-21 22:31N 35°37' E 140°05'0 0.0
2015-May-21 21:33N 35°37' E 140°05'1211.8
2015-May-21 20:34N 35°30' E 139°53'1414.0
2015-May-21 19:33N 35°18' E 139°45'1414.1
2015-May-21 18:33N 35°04' E 139°43'1815.2
2015-May-21 17:23N 34°53' E 139°26'4815.2
2015-May-21 14:14N 34°31' E 138°34'190 9.6
2015-May-20 18:32N 34°04' E 134°47'  
2015-May-18 10:05N 35°07' E 139°42'815.7
2015-May-18 09:33N 35°15' E 139°46'1212.5
2015-May-18 08:33N 35°27' E 139°47'1717.3
2015-May-18 07:34N 35°36' E 140°05'1 0.7
2015-May-18 06:17N 35°36' E 140°06'0 0.0
2015-May-18 05:32N 35°36' E 140°06'1 0.7
2015-May-18 04:33N 35°36' E 140°06'1 1.1
2015-May-18 03:30N 35°37' E 140°05'0 0.0
2015-May-18 02:30N 35°37' E 140°05'0 0.0
2015-May-18 01:18N 35°37' E 140°05'0 0.0
2015-May-18 00:30N 35°37' E 140°05'0 0.0
2015-May-17 23:30N 35°37' E 140°05'0 0.0
2015-May-17 22:30N 35°37' E 140°05'0 0.0
2015-May-17 21:30N 35°37' E 140°05'0 0.0
2015-May-17 20:24N 35°37' E 140°05'0 0.0
2015-May-17 19:30N 35°37' E 140°05'0 0.0
2015-May-17 18:30N 35°37' E 140°05'0 0.0
2015-May-17 17:30N 35°37' E 140°05'0 0.0
2015-May-17 16:06N 35°37' E 140°05'0 0.0
2015-May-17 15:30N 35°37' E 140°05'0 0.0
2015-May-17 14:18N 35°37' E 140°05'0 0.0
2015-May-17 13:24N 35°37' E 140°05'0 0.0
2015-May-17 12:30N 35°37' E 140°05'1 1.4
2015-May-17 11:34N 35°35' E 140°05'1716.8
2015-May-17 10:33N 35°26' E 139°48'1211.9
2015-May-17 09:33N 35°14' E 139°47'26015.0
2015-May-16 16:12N 34°12' E 134°40'239 4.6
2015-May-14 12:26N 34°52' E 139°25'1416.4
2015-May-14 11:33N 35°02' E 139°38'1515.1
2015-May-14 10:33N 35°16' E 139°46'1312.5
2015-May-14 09:34N 35°28' E 139°49'1616.0
2015-May-14 08:33N 35°36' E 140°06'0 0.3
2015-May-14 07:31N 35°36' E 140°06'0 0.0
2015-May-14 06:31N 35°36' E 140°06'1 1.3
2015-May-14 05:33N 35°37' E 140°05'0 0.0
2015-May-14 04:33N 35°37' E 140°05'0 0.0
2015-May-14 03:33N 35°37' E 140°05'0 0.0
2015-May-14 02:33N 35°37' E 140°05'0 0.0
2015-May-14 01:33N 35°37' E 140°05'0 0.0
2015-May-14 00:33N 35°37' E 140°05'0 0.0
2015-May-13 23:33N 35°37' E 140°05'0 0.0
2015-May-13 22:32N 35°37' E 140°05'6 5.9
2015-May-13 21:33N 35°33' E 139°59'1616.0
2015-May-13 20:33N 35°22' E 139°45'1312.9
2015-May-13 19:33N 35°09' E 139°46'1817.4
2015-May-13 18:32N 34°56' E 139°31'23910.8
2015-May-12 20:23N 34°04' E 134°48'  

Dump ship's entire track history